createdAt,value
2023-10-13T00:02:05.836Z,99794.13
2023-10-13T00:04:36.635Z,99787.66
2023-10-13T00:07:24.879Z,99794.47
2023-10-13T00:10:11.170Z,99793.06
2023-10-13T00:12:39.081Z,99789.31
2023-10-13T00:15:14.645Z,99786.84
2023-10-13T00:17:43.002Z,99788.72
2023-10-13T00:20:33.642Z,99791.19
2023-10-13T00:23:00.672Z,99792.59
2023-10-13T00:25:32.877Z,99790.44
2023-10-13T00:28:02.435Z,99790.78
2023-10-13T00:30:34.998Z,99789.16
2023-10-13T00:33:02.225Z,99784.56
2023-10-13T00:35:36.795Z,99781.88
2023-10-13T00:38:18.173Z,99779.16
2023-10-13T00:40:53.374Z,99782.69
2023-10-13T00:43:22.562Z,99787.84
2023-10-13T00:45:58.697Z,99782.44
2023-10-13T00:48:35.381Z,99780.28
2023-10-13T00:51:19.220Z,99775.69
2023-10-13T00:53:48.444Z,99773.56
2023-10-13T00:56:28.249Z,99774.41
2023-10-13T00:59:00.416Z,99776.28
2023-10-13T01:01:33.994Z,99770.88
2023-10-13T01:04:03.442Z,99760.88
2023-10-13T01:06:31.838Z,99757.91
2023-10-13T01:09:20.112Z,99753.31
2023-10-13T01:11:53.282Z,99757.91
2023-10-13T01:14:21.849Z,99749.78
2023-10-13T01:16:53.835Z,99747.91
2023-10-13T01:19:25.919Z,99745.19
2023-10-13T01:22:03.896Z,99742.50
2023-10-13T01:24:38.288Z,99749.28
2023-10-13T01:27:19.057Z,99742.25
2023-10-13T01:29:52.043Z,99735.19
2023-10-13T01:32:22.459Z,99737.63
2023-10-13T01:34:51.165Z,99736.56
2023-10-13T01:37:20.507Z,99730.84
2023-10-13T01:39:49.088Z,99741.13
2023-10-13T01:42:22.822Z,99732.19
2023-10-13T01:44:50.151Z,99724.06
2023-10-13T01:47:17.869Z,99725.09
2023-10-13T01:49:48.714Z,99718.66
2023-10-13T01:52:17.326Z,99721.38
2023-10-13T01:54:49.947Z,99723.00
2023-10-13T01:57:19.917Z,99717.00
2023-10-13T01:59:51.051Z,99717.81
2023-10-13T02:02:31.272Z,99719.69
2023-10-13T02:05:02.348Z,99708.31
2023-10-13T02:07:35.559Z,99717.16
2023-10-13T02:10:06.523Z,99707.34
2023-10-13T02:12:45.263Z,99704.09
2023-10-13T02:15:22.887Z,99706.97
2023-10-13T02:17:53.200Z,99711.25
2023-10-13T02:20:23.855Z,99711.16
2023-10-13T02:22:51.559Z,99701.91
2023-10-13T02:25:39.045Z,99699.69
2023-10-13T02:28:14.600Z,99698.88
2023-10-13T02:30:46.052Z,99696.41
2023-10-13T02:33:14.737Z,99696.66
2023-10-13T02:35:42.579Z,99686.66
2023-10-13T02:38:12.784Z,99695.59
2023-10-13T02:40:40.437Z,99689.88
2023-10-13T02:43:07.759Z,99682.59
2023-10-13T02:45:38.062Z,99682.59
2023-10-13T02:48:14.898Z,99689.88
2023-10-13T02:50:46.855Z,99690.13
2023-10-13T02:53:13.870Z,99688.00
2023-10-13T02:55:53.720Z,99681.50
2023-10-13T02:58:21.888Z,99679.63
2023-10-13T03:00:49.547Z,99684.22
2023-10-13T03:03:19.685Z,99681.25
2023-10-13T03:05:47.240Z,99686.66
2023-10-13T03:08:19.133Z,99683.97
2023-10-13T03:10:49.537Z,99674.22
2023-10-13T03:13:16.625Z,99671.25
2023-10-13T03:15:48.570Z,99669.63
2023-10-13T03:18:19.535Z,99660.44
2023-10-13T03:20:51.396Z,99662.34
2023-10-13T03:23:18.500Z,99665.84
2023-10-13T03:25:50.714Z,99659.63
2023-10-13T03:28:24.982Z,99661.25
2023-10-13T03:30:54.179Z,99669.38
2023-10-13T03:33:27.528Z,99668.56
2023-10-13T03:35:55.470Z,99662.59
2023-10-13T03:38:28.114Z,99665.53
2023-10-13T03:41:09.228Z,99663.91
2023-10-13T03:43:53.806Z,99667.34
2023-10-13T03:46:23.167Z,99668.69
2023-10-13T03:48:53.907Z,99668.09
2023-10-13T03:51:21.485Z,99660.47
2023-10-13T03:53:55.239Z,99652.28
2023-10-13T03:56:39.963Z,99645.97
2023-10-13T03:59:20.149Z,99647.06
2023-10-13T04:01:59.808Z,99647.06
2023-10-13T04:04:33.326Z,99644.03
2023-10-13T04:07:06.568Z,99633.47
2023-10-13T04:09:33.542Z,99635.59
2023-10-13T04:12:05.936Z,99629.38
2023-10-13T04:14:53.523Z,99633.97
2023-10-13T04:17:24.087Z,99628.56
2023-10-13T04:20:08.950Z,99622.91
2023-10-13T04:22:50.212Z,99620.19
2023-10-13T04:25:43.348Z,99609.97
2023-10-13T04:28:16.822Z,99615.94
2023-10-13T04:30:59.304Z,99609.47
2023-10-13T04:33:37.092Z,99608.41
2023-10-13T04:36:37.180Z,99605.97
2023-10-13T04:39:04.892Z,99606.78
2023-10-13T04:41:46.549Z,99603.50
2023-10-13T04:44:38.234Z,99608.31
2023-10-13T04:47:05.394Z,99607.25
2023-10-13T04:49:43.835Z,99608.56
2023-10-13T04:52:11.532Z,99605.06
2023-10-13T04:54:50.612Z,99599.91
2023-10-13T04:57:23.889Z,99610.72
2023-10-13T05:00:10.621Z,99605.88
2023-10-13T05:03:05.097Z,99604.50
2023-10-13T05:05:50.948Z,99607.75
2023-10-13T05:08:36.556Z,99597.22
2023-10-13T05:11:40.616Z,99599.91
2023-10-13T05:14:26.082Z,99597.22
2023-10-13T05:17:30.245Z,99600.13
2023-10-13T05:20:17.960Z,99593.09
2023-10-13T05:23:03.534Z,99601.47
2023-10-13T05:25:48.830Z,99587.69
2023-10-13T05:28:35.810Z,99589.94
2023-10-13T05:31:40.288Z,99592.13
2023-10-13T05:34:25.737Z,99579.41
2023-10-13T05:37:29.671Z,99592.38
2023-10-13T05:40:33.559Z,99594.50
2023-10-13T05:43:18.889Z,99590.41
2023-10-13T05:46:24.188Z,99590.66
2023-10-13T05:49:00.361Z,99590.91
2023-10-13T05:51:34.509Z,99590.09
2023-10-13T05:54:17.045Z,99595.50
2023-10-13T05:57:10.419Z,99585.50
2023-10-13T05:59:57.383Z,99589.28
2023-10-13T06:02:44.036Z,99579.28
2023-10-13T06:05:32.068Z,99580.91
2023-10-13T06:08:18.013Z,99580.59
2023-10-13T06:11:04.345Z,99576.03
2023-10-13T06:13:49.937Z,99574.59
2023-10-13T06:16:37.009Z,99569.19
2023-10-13T06:19:23.296Z,99562.53
2023-10-13T06:22:08.981Z,99562.25
2023-10-13T06:24:54.471Z,99575.19
2023-10-13T06:27:39.797Z,99577.66
2023-10-13T06:30:07.573Z,99576.34
2023-10-13T06:32:34.782Z,99579.59
2023-10-13T06:35:07.650Z,99575.81
2023-10-13T06:37:35.313Z,99584.19
2023-10-13T06:40:26.981Z,99581.75
2023-10-13T06:42:56.223Z,99583.94
2023-10-13T06:45:23.245Z,99572.66
2023-10-13T06:47:54.675Z,99582.47
2023-10-13T06:50:25.354Z,99590.31
2023-10-13T06:52:55.856Z,99588.44
2023-10-13T06:55:29.848Z,99588.75
2023-10-13T06:58:01.422Z,99586.97
2023-10-13T07:00:35.567Z,99591.34
2023-10-13T07:03:19.079Z,99588.72
2023-10-13T07:05:49.420Z,99586.09
2023-10-13T07:08:24.984Z,99592.13
2023-10-13T07:11:09.380Z,99584.09
2023-10-13T07:13:39.414Z,99604.72
2023-10-13T07:16:16.402Z,99595.09
2023-10-13T07:18:56.434Z,99594.66
2023-10-13T07:21:32.108Z,99597.75
2023-10-13T07:24:09.188Z,99590.84
2023-10-13T07:26:44.059Z,99589.84
2023-10-13T07:29:11.972Z,99585.03
2023-10-13T07:31:41.630Z,99588.63
2023-10-13T07:34:14.055Z,99591.94
2023-10-13T07:36:44.399Z,99593.38
2023-10-13T07:39:24.972Z,99590.47
2023-10-13T07:42:04.634Z,99591.31
2023-10-13T07:44:34.783Z,99592.75
2023-10-13T07:47:08.677Z,99590.66
2023-10-13T07:49:40.807Z,99588.81
2023-10-13T07:52:28.183Z,99595.91
2023-10-13T07:55:00.839Z,99594.59
2023-10-13T07:57:30.622Z,99590.31
2023-10-13T08:00:26.659Z,99595.56
2023-10-13T08:03:29.582Z,99585.03
2023-10-13T08:06:11.791Z,99580.22
2023-10-13T08:08:39.795Z,99569.41
2023-10-13T08:11:25.656Z,99564.56
2023-10-13T08:14:22.379Z,99571.09
2023-10-13T08:17:04.910Z,99567.34
2023-10-13T08:19:41.618Z,99574.97
2023-10-13T08:22:19.437Z,99563.31
2023-10-13T08:24:51.383Z,99560.34
2023-10-13T08:27:57.552Z,99570.44
2023-10-13T08:30:27.868Z,99572.63
2023-10-13T08:32:59.401Z,99574.00
2023-10-13T08:35:36.607Z,99571.59
2023-10-13T08:38:29.156Z,99580.06
2023-10-13T08:41:16.413Z,99575.22
2023-10-13T08:43:52.582Z,99570.09
2023-10-13T08:46:31.312Z,99574.19
2023-10-13T08:49:15.930Z,99568.22
2023-10-13T08:51:47.876Z,99567.69
2023-10-13T08:54:35.304Z,99564.72
2023-10-13T08:57:34.281Z,99566.13
2023-10-13T09:00:21.547Z,99567.50
2023-10-13T09:03:01.092Z,99568.84
2023-10-13T09:05:59.882Z,99563.97
2023-10-13T09:08:46.641Z,99559.38
2023-10-13T09:11:14.370Z,99547.66
2023-10-13T09:13:53.163Z,99560.19
2023-10-13T09:16:40.333Z,99547.97
2023-10-13T09:19:07.381Z,99543.91
2023-10-13T09:21:41.161Z,99550.41
2023-10-13T09:24:23.981Z,99550.94
2023-10-13T09:26:56.981Z,99547.69
2023-10-13T09:29:25.368Z,99541.13
2023-10-13T09:32:05.459Z,99543.03
2023-10-13T09:34:35.969Z,99545.47
2023-10-13T09:37:07.438Z,99537.28
2023-10-13T09:39:49.439Z,99538.38
2023-10-13T09:42:19.265Z,99529.63
2023-10-13T09:44:56.822Z,99523.63
2023-10-13T09:47:31.506Z,99519.25
2023-10-13T09:50:07.092Z,99523.00
2023-10-13T09:52:34.931Z,99500.91
2023-10-13T09:55:22.585Z,99514.75
2023-10-13T09:58:00.403Z,99500.28
2023-10-13T10:00:42.163Z,99496.13
2023-10-13T10:03:28.109Z,99496.63
2023-10-13T10:06:07.009Z,99497.91
2023-10-13T10:08:36.090Z,99491.53
2023-10-13T10:11:35.365Z,99487.34
2023-10-13T10:14:02.278Z,99492.16
2023-10-13T10:17:11.896Z,99492.66
2023-10-13T10:19:57.810Z,99481.88
2023-10-13T10:22:40.609Z,99475.25
2023-10-13T10:25:08.879Z,99478.97
2023-10-13T10:27:36.545Z,99482.16
2023-10-13T10:30:06.646Z,99475.50
2023-10-13T10:32:45.403Z,99464.47
2023-10-13T10:35:16.329Z,99474.13
2023-10-13T10:37:49.871Z,99467.16
2023-10-13T10:40:38.543Z,99467.56
2023-10-13T10:43:25.572Z,99469.88
2023-10-13T10:46:03.585Z,99461.75
2023-10-13T10:48:35.177Z,99463.13
2023-10-13T10:51:07.990Z,99470.25
2023-10-13T10:53:45.217Z,99468.72
2023-10-13T10:56:26.948Z,99452.47
2023-10-13T10:59:01.272Z,99458.84
2023-10-13T11:01:48.084Z,99457.34
2023-10-13T11:04:19.373Z,99449.56
2023-10-13T11:06:57.559Z,99452.22
2023-10-13T11:09:32.020Z,99430.44
2023-10-13T11:12:15.065Z,99426.47
2023-10-13T11:14:47.851Z,99428.00
2023-10-13T11:17:34.377Z,99426.19
2023-10-13T11:20:17.626Z,99434.84
2023-10-13T11:22:49.312Z,99419.22
2023-10-13T11:25:31.306Z,99417.00
2023-10-13T11:28:00.385Z,99422.25
2023-10-13T11:30:41.887Z,99404.84
2023-10-13T11:33:11.748Z,99397.81
2023-10-13T11:35:53.967Z,99407.25
2023-10-13T11:38:29.513Z,99399.34
2023-10-13T11:41:05.805Z,99399.13
2023-10-13T11:43:41.195Z,99394.28
2023-10-13T11:46:10.740Z,99391.03
2023-10-13T11:48:38.959Z,99391.34
2023-10-13T11:51:18.526Z,99392.66
2023-10-13T11:53:52.899Z,99379.19
2023-10-13T11:56:25.267Z,99384.72
2023-10-13T11:58:52.862Z,99381.41
2023-10-13T12:01:20.071Z,99379.69
2023-10-13T12:04:10.049Z,99365.00
2023-10-13T12:06:37.634Z,99355.94
2023-10-13T12:09:21.304Z,99358.59
2023-10-13T12:11:55.407Z,99357.94
2023-10-13T12:14:22.570Z,99354.41
2023-10-13T12:16:51.720Z,99351.66
2023-10-13T12:19:30.205Z,99342.84
2023-10-13T12:22:05.162Z,99351.84
2023-10-13T12:24:41.105Z,99339.31
2023-10-13T12:31:28.279Z,99326.50
2023-10-13T12:33:58.850Z,99320.53
2023-10-13T12:36:32.436Z,99313.50
2023-10-13T12:39:08.093Z,99315.03
2023-10-13T12:41:53.849Z,99297.66
2023-10-13T12:44:39.238Z,99315.38
2023-10-13T12:47:27.013Z,99305.38
2023-10-13T12:49:59.461Z,99306.31
2023-10-13T12:52:27.119Z,99315.31
2023-10-13T12:54:57.628Z,99306.72
2023-10-13T12:57:29.435Z,99298.63
2023-10-13T12:59:56.902Z,99296.34
2023-10-13T13:02:28.080Z,99298.75
2023-10-13T13:05:02.903Z,99298.97
2023-10-13T13:07:30.704Z,99299.13
2023-10-13T13:10:01.084Z,99292.25
2023-10-13T13:12:31.577Z,99286.19
2023-10-13T13:14:58.676Z,99281.84
2023-10-13T13:17:25.845Z,99283.78
2023-10-13T13:19:53.012Z,99280.06
2023-10-13T13:22:21.735Z,99280.41
2023-10-13T13:24:48.789Z,99262.84
2023-10-13T13:27:23.351Z,99265.44
2023-10-13T13:29:50.489Z,99261.56
2023-10-13T13:32:24.979Z,99246.72
2023-10-13T13:34:59.876Z,99252.22
2023-10-13T13:37:30.573Z,99247.22
2023-10-13T13:40:03.261Z,99243.94
2023-10-13T13:42:37.605Z,99241.38
2023-10-13T13:45:09.717Z,99232.22
2023-10-13T13:47:36.792Z,99224.13
2023-10-13T13:50:15.628Z,99218.97
2023-10-13T13:52:47.114Z,99218.16
2023-10-13T13:55:18.328Z,99214.31
2023-10-13T13:57:45.586Z,99211.09
2023-10-13T14:00:38.003Z,99200.41
2023-10-13T14:03:14.196Z,99203.47
2023-10-13T14:05:44.794Z,99186.69
2023-10-13T14:08:16.148Z,99184.47
2023-10-13T14:11:12.620Z,99194.13
2023-10-13T14:13:53.570Z,99188.66
2023-10-13T14:16:26.778Z,99193.50
2023-10-13T14:18:54.023Z,99181.53
2023-10-13T14:21:25.139Z,99178.31
2023-10-13T14:23:54.723Z,99174.09
2023-10-13T14:26:31.389Z,99174.91
2023-10-13T14:29:02.928Z,99179.00
2023-10-13T14:31:31.324Z,99170.75
2023-10-13T14:33:59.001Z,99171.03
2023-10-13T14:36:29.665Z,99162.31
2023-10-13T14:38:58.099Z,99170.22
2023-10-13T14:41:25.314Z,99159.91
2023-10-13T14:43:52.400Z,99150.03
2023-10-13T14:46:24.465Z,99144.88
2023-10-13T14:48:55.357Z,99143.09
2023-10-13T14:51:22.428Z,99140.22
2023-10-13T14:53:52.574Z,99141.50
2023-10-13T14:56:21.277Z,99127.78
2023-10-13T14:58:48.364Z,99129.09
2023-10-13T15:01:25.664Z,99121.16
2023-10-13T15:03:56.311Z,99119.88
2023-10-13T15:06:31.638Z,99114.22
2023-10-13T15:09:00.192Z,99104.19
2023-10-13T15:11:44.168Z,99106.44
2023-10-13T15:14:17.238Z,99098.69
2023-10-13T15:16:45.203Z,99093.84
2023-10-13T15:19:13.258Z,99093.69
2023-10-13T15:21:41.324Z,99092.06
2023-10-13T15:24:24.699Z,99082.22
2023-10-13T15:27:01.925Z,99077.56
2023-10-13T15:29:36.607Z,99075.16
2023-10-13T15:32:04.976Z,99078.03
2023-10-13T15:34:32.809Z,99073.69
2023-10-13T15:37:01.695Z,99072.41
2023-10-13T15:39:29.650Z,99069.53
2023-10-13T15:42:00.399Z,99070.47
2023-10-13T15:44:32.011Z,99067.09
2023-10-13T15:49:35.185Z,99060.00
2023-10-13T15:52:02.752Z,99061.31
2023-10-13T15:54:29.906Z,99056.16
2023-10-13T15:56:57.061Z,99048.75
2023-10-13T15:59:24.614Z,99040.53
2023-10-13T16:01:58.074Z,99045.19
2023-10-13T16:04:25.495Z,99032.75
2023-10-13T16:06:52.955Z,99035.16
2023-10-13T16:09:24.656Z,99032.91
2023-10-13T16:11:54.288Z,99029.34
2023-10-13T16:14:22.903Z,99028.72
2023-10-13T16:16:53.898Z,99027.06
2023-10-13T16:19:24.025Z,99012.47
2023-10-13T16:21:52.801Z,99015.84
2023-10-13T16:24:21.549Z,99024.66
2023-10-13T16:26:56.076Z,99019.47
2023-10-13T16:29:23.319Z,99017.50
2023-10-13T16:31:50.418Z,99012.31
2023-10-13T16:34:18.932Z,99009.41
2023-10-13T16:36:47.940Z,99006.00
2023-10-13T16:39:16.223Z,99014.13
2023-10-13T16:41:46.634Z,99007.50
2023-10-13T16:44:14.040Z,99012.59
2023-10-13T16:46:41.927Z,99009.50
2023-10-13T16:49:09.853Z,99019.44
2023-10-13T16:51:37.591Z,99017.47
2023-10-13T16:54:05.995Z,99018.22
2023-10-13T16:56:36.914Z,99012.88
2023-10-13T16:59:06.298Z,99017.34
2023-10-13T17:01:34.047Z,99009.28
2023-10-13T17:04:01.481Z,99013.22
2023-10-13T17:06:28.809Z,99013.81
2023-10-13T17:08:57.044Z,99003.53
2023-10-13T17:11:27.534Z,99002.53
2023-10-13T17:13:54.591Z,98996.06
2023-10-13T17:16:24.202Z,98993.47
2023-10-13T17:18:53.082Z,99001.66
2023-10-13T17:21:23.497Z,99001.75
2023-10-13T17:23:52.482Z,99006.72
2023-10-13T17:26:29.457Z,98999.78
2023-10-13T17:28:59.709Z,99004.22
2023-10-13T17:31:33.072Z,98991.47
2023-10-13T17:34:00.967Z,98998.38
2023-10-13T17:36:32.483Z,98989.69
2023-10-13T17:39:02.199Z,98988.06
2023-10-13T17:41:33.451Z,98980.97
2023-10-13T17:44:03.193Z,98977.66
2023-10-13T17:46:30.363Z,98983.09
2023-10-13T17:48:57.709Z,98986.66
2023-10-13T17:51:25.058Z,98989.69
2023-10-13T17:53:53.724Z,98988.56
2023-10-13T17:56:20.948Z,98987.75
2023-10-13T17:58:48.188Z,98984.22
2023-10-13T18:01:20.778Z,98991.91
2023-10-13T18:03:50.514Z,98981.81
2023-10-13T18:06:20.991Z,98988.06
2023-10-13T18:08:53.025Z,98990.28
2023-10-13T18:11:20.300Z,98984.03
2023-10-13T18:13:49.374Z,98971.69
2023-10-13T18:16:21.899Z,98969.56
2023-10-13T18:18:56.860Z,98967.94
2023-10-13T18:21:24.587Z,98966.34
2023-10-13T18:23:53.892Z,98964.09
2023-10-13T18:26:20.993Z,98963.19
2023-10-13T18:28:51.934Z,98957.41
2023-10-13T18:31:19.188Z,98957.91
2023-10-13T18:33:47.218Z,98955.69
2023-10-13T18:36:25.299Z,98957.00
2023-10-13T18:38:52.837Z,98946.06
2023-10-13T18:41:20.470Z,98957.63
2023-10-13T18:43:48.591Z,98953.25
2023-10-13T18:46:17.767Z,98945.19
2023-10-13T18:48:46.525Z,98954.19
2023-10-13T18:51:19.906Z,98946.31
2023-10-13T18:53:49.079Z,98949.84
2023-10-13T18:56:21.660Z,98945.19
2023-10-13T18:58:57.324Z,98947.13
2023-10-13T19:01:30.486Z,98941.13
2023-10-13T19:04:03.944Z,98947.22
2023-10-13T19:06:34.225Z,98941.28
2023-10-13T19:09:05.747Z,98944.59
2023-10-13T19:11:38.521Z,98941.97
2023-10-13T19:14:11.304Z,98934.41
2023-10-13T19:16:42.090Z,98938.59
2023-10-13T19:19:09.452Z,98930.66
2023-10-13T19:21:40.277Z,98930.47
2023-10-13T19:24:07.889Z,98931.06
2023-10-13T19:26:38.031Z,98937.34
2023-10-13T19:29:06.690Z,98930.09
2023-10-13T19:31:35.578Z,98931.47
2023-10-13T19:34:05.768Z,98928.06
2023-10-13T19:36:34.374Z,98933.34
2023-10-13T19:39:08.335Z,98933.91
2023-10-13T19:41:38.047Z,98924.94
2023-10-13T19:44:05.698Z,98921.72
2023-10-13T19:46:38.290Z,98929.09
2023-10-13T19:49:06.606Z,98922.81
2023-10-13T19:51:35.019Z,98934.53
2023-10-13T19:54:04.159Z,98923.63
2023-10-13T19:56:33.328Z,98929.72
2023-10-13T19:59:02.519Z,98931.91
2023-10-13T20:01:35.138Z,98930.94
2023-10-13T20:04:07.801Z,98932.84
2023-10-13T20:06:35.769Z,98931.84
2023-10-13T20:09:10.295Z,98938.41
2023-10-13T20:11:38.455Z,98930.53
2023-10-13T20:14:05.908Z,98949.09
2023-10-13T20:16:32.929Z,98936.09
2023-10-13T20:19:00.385Z,98936.69
2023-10-13T20:21:29.292Z,98941.63
2023-10-13T20:24:01.529Z,98939.63
2023-10-13T20:26:42.877Z,98939.72
2023-10-13T20:29:16.902Z,98931.72
2023-10-13T20:31:49.732Z,98930.47
2023-10-13T20:34:21.296Z,98938.75
2023-10-13T20:36:48.449Z,98931.47
2023-10-13T20:39:25.177Z,98938.63
2023-10-13T20:41:53.470Z,98932.69
2023-10-13T20:44:29.610Z,98925.69
2023-10-13T20:46:57.969Z,98929.03
2023-10-13T20:49:27.721Z,98925.16
2023-10-13T20:51:55.180Z,98927.97
2023-10-13T20:54:22.610Z,98919.00
2023-10-13T20:56:49.713Z,98920.09
2023-10-13T20:59:16.960Z,98915.53
2023-10-13T21:01:45.418Z,98909.78
2023-10-13T21:04:12.966Z,98907.69
2023-10-13T21:06:42.004Z,98909.91
2023-10-13T21:09:13.721Z,98910.19
2023-10-13T21:11:42.006Z,98914.81
2023-10-13T21:14:09.044Z,98925.72
2023-10-13T21:16:36.045Z,98931.75
2023-10-13T21:19:06.027Z,98926.91
2023-10-13T21:21:34.896Z,98940.28
2023-10-13T21:24:05.175Z,98932.69
2023-10-13T21:26:32.362Z,98935.50
2023-10-13T21:28:59.575Z,98929.03
2023-10-13T21:31:28.092Z,98936.97
2023-10-13T21:33:56.427Z,98944.63
2023-10-13T21:36:28.275Z,98951.19
2023-10-13T21:38:59.016Z,98953.41
2023-10-13T21:41:26.314Z,98953.69
2023-10-13T21:43:55.706Z,98959.41
2023-10-13T21:46:27.287Z,98949.63
2023-10-13T21:48:55.253Z,98948.84
2023-10-13T21:51:26.053Z,98953.47
2023-10-13T21:53:53.857Z,98950.75
2023-10-13T21:56:29.283Z,98956.19
2023-10-13T21:58:59.412Z,98960.84
2023-10-13T22:01:30.023Z,98968.19
2023-10-13T22:04:10.997Z,98961.41
2023-10-13T22:06:47.051Z,98961.41
2023-10-13T22:09:15.403Z,98967.66
2023-10-13T22:11:42.529Z,98969.28
2023-10-13T22:14:13.980Z,98974.75
2023-10-13T22:16:42.268Z,98976.34
2023-10-13T22:19:09.391Z,98977.16
2023-10-13T22:21:38.101Z,98977.97
2023-10-13T22:24:05.572Z,98983.13
2023-10-13T22:26:32.620Z,98988.84
2023-10-13T22:29:00.046Z,98987.25
2023-10-13T22:31:27.569Z,98981.78
2023-10-13T22:33:56.136Z,98974.44
2023-10-13T22:36:24.189Z,98980.19
2023-10-13T22:38:59.343Z,98986.19
2023-10-13T22:41:30.429Z,98982.97
2023-10-13T22:43:58.440Z,98984.06
2023-10-13T22:46:26.023Z,98987.38
2023-10-13T22:48:53.476Z,98985.25
2023-10-13T22:51:21.855Z,98971.41
2023-10-13T22:53:49.009Z,98980.66
2023-10-13T22:56:19.346Z,98979.34
2023-10-13T22:58:50.036Z,98985.09
2023-10-13T23:01:19.570Z,98975.88
2023-10-13T23:03:56.769Z,98979.41
2023-10-13T23:06:31.422Z,98971.56
2023-10-13T23:09:12.781Z,98960.66
2023-10-13T23:11:40.539Z,98967.50
2023-10-13T23:14:12.811Z,98959.63
2023-10-13T23:16:40.125Z,98961.53
2023-10-13T23:19:07.736Z,98957.72
2023-10-13T23:21:39.347Z,98957.22
2023-10-13T23:24:10.281Z,98960.72
2023-10-13T23:26:37.344Z,98955.28
2023-10-13T23:29:05.696Z,98958.81
2023-10-13T23:31:33.100Z,98953.69
2023-10-13T23:34:01.797Z,98951.75
2023-10-13T23:36:31.984Z,98950.66
2023-10-13T23:39:09.921Z,98947.94
2023-10-13T23:41:41.892Z,98944.41
2023-10-13T23:44:15.998Z,98936.25
2023-10-13T23:46:46.483Z,98938.66
2023-10-13T23:49:19.239Z,98938.16
2023-10-13T23:51:51.366Z,98937.88
2023-10-13T23:54:18.830Z,98939.78
2023-10-13T23:56:49.328Z,98942.50
2023-10-13T23:59:27.873Z,98932.13
